createdAt,value
2023-10-03T00:01:51.117Z,81.39
2023-10-03T00:03:54.986Z,81.63
2023-10-03T00:05:57.623Z,81.33
2023-10-03T00:08:02.089Z,82.15
2023-10-03T00:10:05.016Z,81.74
2023-10-03T00:12:07.344Z,81.81
2023-10-03T00:14:13.062Z,81.58
2023-10-03T00:16:15.380Z,81.64
2023-10-03T00:18:17.892Z,81.67
2023-10-03T00:20:20.310Z,81.21
2023-10-03T00:22:23.202Z,81.65
2023-10-03T00:24:26.564Z,81.29
2023-10-03T00:26:32.824Z,81.00
2023-10-03T00:28:35.736Z,81.78
2023-10-03T00:30:41.942Z,81.61
2023-10-03T00:32:45.077Z,81.57
2023-10-03T00:34:47.796Z,81.29
2023-10-03T00:36:52.033Z,81.63
2023-10-03T00:38:54.680Z,81.57
2023-10-03T00:40:57.447Z,81.44
2023-10-03T00:43:02.610Z,81.77
2023-10-03T00:45:10.232Z,81.63
2023-10-03T00:47:13.327Z,81.33
2023-10-03T00:49:16.350Z,81.76
2023-10-03T00:51:22.476Z,81.07
2023-10-03T00:53:25.294Z,81.47
2023-10-03T00:55:29.509Z,81.54
2023-10-03T00:57:34.130Z,81.08
2023-10-03T00:59:36.897Z,81.22
2023-10-03T01:01:39.800Z,81.12
2023-10-03T01:03:42.673Z,81.28
2023-10-03T01:05:46.086Z,80.80
2023-10-03T01:07:50.899Z,81.13
2023-10-03T01:09:55.066Z,80.79
2023-10-03T01:11:58.002Z,80.38
2023-10-03T01:14:02.069Z,80.50
2023-10-03T01:16:07.481Z,80.52
2023-10-03T01:18:15.530Z,80.90
2023-10-03T01:20:30.319Z,81.17
2023-10-03T01:22:32.905Z,80.80
2023-10-03T01:24:36.106Z,81.08
2023-10-03T01:26:39.242Z,80.47
2023-10-03T01:28:43.987Z,80.89
2023-10-03T01:30:46.797Z,80.64
2023-10-03T01:32:58.684Z,80.34
2023-10-03T01:35:09.718Z,80.60
2023-10-03T01:37:12.421Z,81.21
2023-10-03T01:39:16.149Z,80.70
2023-10-03T01:41:20.418Z,80.25
2023-10-03T01:43:23.177Z,79.92
2023-10-03T01:45:29.034Z,80.38
2023-10-03T01:47:31.871Z,80.09
2023-10-03T01:49:35.911Z,80.92
2023-10-03T01:51:38.455Z,80.95
2023-10-03T01:53:42.066Z,80.88
2023-10-03T01:55:45.712Z,80.63
2023-10-03T01:57:49.704Z,80.79
2023-10-03T01:59:52.191Z,80.88
2023-10-03T02:01:54.730Z,80.96
2023-10-03T02:03:57.887Z,81.01
2023-10-03T02:06:00.999Z,80.56
2023-10-03T02:08:25.741Z,80.33
2023-10-03T02:10:28.270Z,80.41
2023-10-03T02:12:31.742Z,81.01
2023-10-03T02:14:35.546Z,80.21
2023-10-03T02:16:45.646Z,80.63
2023-10-03T02:18:48.294Z,80.74
2023-10-03T02:20:54.340Z,80.85
2023-10-03T02:23:01.000Z,80.95
2023-10-03T02:25:04.883Z,81.40
2023-10-03T02:27:08.405Z,81.34
2023-10-03T02:29:11.781Z,81.41
2023-10-03T02:31:16.726Z,81.70
2023-10-03T02:33:23.484Z,81.65
2023-10-03T02:35:27.934Z,81.92
2023-10-03T02:37:30.536Z,82.44
2023-10-03T02:39:41.219Z,82.34
2023-10-03T02:41:44.053Z,82.21
2023-10-03T02:43:48.750Z,82.08
2023-10-03T02:45:56.391Z,81.80
2023-10-03T02:48:05.420Z,82.22
2023-10-03T02:50:09.696Z,82.54
2023-10-03T02:52:13.602Z,82.41
2023-10-03T02:54:17.251Z,82.50
2023-10-03T02:56:20.393Z,82.84
2023-10-03T02:58:23.302Z,82.54
2023-10-03T03:00:26.154Z,82.51
2023-10-03T03:02:28.849Z,82.48
2023-10-03T03:04:31.638Z,82.52
2023-10-03T03:06:34.597Z,83.11
2023-10-03T03:08:41.711Z,82.63
2023-10-03T03:11:09.473Z,82.73
2023-10-03T03:13:15.480Z,83.46
2023-10-03T03:15:29.665Z,82.64
2023-10-03T03:17:32.864Z,82.72
2023-10-03T03:19:35.496Z,82.88
2023-10-03T03:21:38.285Z,82.63
2023-10-03T03:23:45.030Z,82.96
2023-10-03T03:25:51.279Z,82.77
2023-10-03T03:27:58.332Z,83.10
2023-10-03T03:30:24.536Z,83.27
2023-10-03T03:32:29.038Z,83.23
2023-10-03T03:34:32.372Z,83.34
2023-10-03T03:36:36.711Z,83.03
2023-10-03T03:38:39.119Z,83.36
2023-10-03T03:40:47.106Z,83.10
2023-10-03T03:42:50.181Z,83.05
2023-10-03T03:44:52.482Z,83.01
2023-10-03T03:46:55.090Z,83.81
2023-10-03T03:49:00.271Z,83.53
2023-10-03T03:51:03.097Z,83.55
2023-10-03T03:53:06.461Z,83.84
2023-10-03T03:55:10.206Z,83.90
2023-10-03T03:57:12.696Z,84.06
2023-10-03T03:59:15.304Z,84.46
2023-10-03T04:01:25.218Z,84.00
2023-10-03T04:03:36.558Z,84.06
2023-10-03T04:05:42.164Z,84.21
2023-10-03T04:07:45.775Z,84.19
2023-10-03T04:09:48.338Z,84.54
2023-10-03T04:11:51.133Z,83.25
2023-10-03T04:13:57.067Z,84.02
2023-10-03T04:16:02.916Z,84.25
2023-10-03T04:18:05.871Z,84.03
2023-10-03T04:20:21.736Z,83.84
2023-10-03T04:22:24.224Z,83.46
2023-10-03T04:24:27.346Z,83.09
2023-10-03T04:26:34.067Z,83.42
2023-10-03T04:28:36.856Z,83.72
2023-10-03T04:30:41.705Z,84.20
2023-10-03T04:32:44.998Z,84.01
2023-10-03T04:34:47.677Z,83.63
2023-10-03T04:36:50.489Z,83.64
2023-10-03T04:38:53.472Z,83.70
2023-10-03T04:40:58.847Z,83.76
2023-10-03T04:43:03.365Z,83.92
2023-10-03T04:45:11.744Z,84.02
2023-10-03T04:47:14.461Z,83.61
2023-10-03T04:49:17.985Z,83.61
2023-10-03T04:51:20.737Z,83.73
2023-10-03T04:53:25.068Z,83.51
2023-10-03T04:55:28.304Z,84.06
2023-10-03T04:57:31.121Z,84.38
2023-10-03T04:59:33.580Z,84.08
2023-10-03T05:01:36.575Z,84.26
2023-10-03T05:03:39.830Z,84.39
2023-10-03T05:05:42.703Z,84.35
2023-10-03T05:07:46.926Z,84.65
2023-10-03T05:09:50.284Z,84.74
2023-10-03T05:11:52.719Z,84.81
2023-10-03T05:13:56.692Z,84.84
2023-10-03T05:15:59.351Z,84.47
2023-10-03T05:18:03.861Z,84.24
2023-10-03T05:20:08.929Z,84.92
2023-10-03T05:22:14.831Z,84.38
2023-10-03T05:24:18.384Z,84.76
2023-10-03T05:26:22.723Z,84.92
2023-10-03T05:28:25.635Z,84.64
2023-10-03T05:30:31.186Z,84.65
2023-10-03T05:32:33.887Z,84.96
2023-10-03T05:34:36.717Z,84.91
2023-10-03T05:36:40.732Z,84.83
2023-10-03T05:38:44.473Z,84.62
2023-10-03T05:40:48.632Z,84.50
2023-10-03T05:42:51.566Z,84.44
2023-10-03T05:44:54.608Z,84.14
2023-10-03T05:46:57.654Z,84.01
2023-10-03T05:49:00.257Z,84.09
2023-10-03T05:51:03.115Z,83.88
2023-10-03T05:53:08.656Z,83.53
2023-10-03T05:55:12.385Z,83.32
2023-10-03T05:57:15.542Z,83.12
2023-10-03T05:59:18.010Z,82.71
2023-10-03T06:01:20.762Z,83.19
2023-10-03T06:03:24.178Z,82.46
2023-10-03T06:05:27.730Z,82.46
2023-10-03T06:07:32.631Z,82.67
2023-10-03T06:09:35.398Z,81.96
2023-10-03T06:11:39.411Z,82.14
2023-10-03T06:13:45.693Z,81.31
2023-10-03T06:15:48.318Z,81.16
2023-10-03T06:31:06.656Z,73.39
2023-10-03T06:33:17.394Z,74.55
2023-10-03T06:35:21.779Z,74.10
2023-10-03T06:37:27.013Z,74.39
2023-10-03T06:39:31.491Z,74.34
2023-10-03T06:41:34.504Z,73.19
2023-10-03T06:43:37.131Z,72.75
2023-10-03T06:45:40.435Z,72.95
2023-10-03T06:47:43.025Z,72.02
2023-10-03T06:49:45.802Z,72.03
2023-10-03T06:51:48.699Z,71.92
2023-10-03T06:53:54.280Z,71.45
2023-10-03T06:55:58.977Z,71.80
2023-10-03T06:58:02.627Z,70.64
2023-10-03T07:00:06.387Z,69.30
2023-10-03T07:02:10.004Z,69.70
2023-10-03T07:04:13.181Z,69.26
2023-10-03T07:06:16.521Z,68.73
2023-10-03T07:08:19.165Z,67.57
2023-10-03T07:10:23.735Z,69.15
2023-10-03T07:12:27.167Z,69.69
2023-10-03T07:14:31.949Z,68.10
2023-10-03T07:16:39.165Z,69.60
2023-10-03T07:18:46.071Z,68.30
2023-10-03T07:20:49.895Z,66.96
2023-10-03T07:22:53.206Z,66.19
2023-10-03T07:24:56.401Z,66.79
2023-10-03T07:27:05.578Z,64.69
2023-10-03T07:29:08.444Z,64.52
2023-10-03T07:31:14.722Z,65.46
2023-10-03T07:33:18.805Z,65.37
2023-10-03T07:35:23.390Z,64.49
2023-10-03T07:37:26.282Z,64.46
2023-10-03T07:39:28.853Z,63.92
2023-10-03T07:41:31.556Z,63.69
2023-10-03T07:43:34.387Z,64.21
2023-10-03T07:45:42.379Z,63.98
2023-10-03T07:47:46.523Z,63.11
2023-10-03T07:49:50.013Z,60.96
2023-10-03T07:51:58.572Z,62.43
2023-10-03T07:54:01.418Z,62.70
2023-10-03T07:56:04.282Z,62.66
2023-10-03T07:58:07.843Z,61.43
2023-10-03T08:00:19.215Z,61.38
2023-10-03T08:02:28.018Z,62.74
2023-10-03T08:04:33.966Z,59.80
2023-10-03T08:06:38.183Z,61.47
2023-10-03T08:08:41.229Z,62.25
2023-10-03T08:10:48.404Z,61.79
2023-10-03T08:12:54.430Z,61.21
2023-10-03T08:14:57.252Z,61.04
2023-10-03T08:17:00.431Z,60.74
2023-10-03T08:19:04.132Z,60.42
2023-10-03T08:21:09.768Z,60.36
2023-10-03T08:23:13.056Z,59.30
2023-10-03T08:25:16.034Z,60.80
2023-10-03T08:27:23.256Z,58.27
2023-10-03T08:29:27.540Z,58.28
2023-10-03T08:31:31.048Z,59.48
2023-10-03T08:33:38.008Z,57.99
2023-10-03T08:35:41.501Z,58.89
2023-10-03T08:37:45.417Z,57.41
2023-10-03T08:39:50.321Z,58.18
2023-10-03T08:42:19.369Z,58.21
2023-10-03T08:44:26.684Z,57.96
2023-10-03T08:46:31.565Z,55.62
2023-10-03T08:48:36.455Z,56.52
2023-10-03T08:50:54.185Z,56.05
2023-10-03T08:52:58.237Z,55.67
2023-10-03T08:55:03.672Z,56.34
2023-10-03T08:57:06.881Z,57.39
2023-10-03T08:59:17.770Z,55.99
2023-10-03T09:01:21.198Z,55.55
2023-10-03T09:03:25.036Z,54.97
2023-10-03T09:05:28.256Z,54.98
2023-10-03T09:07:45.711Z,55.43
2023-10-03T09:09:48.770Z,53.51
2023-10-03T09:11:53.241Z,54.74
2023-10-03T09:14:01.705Z,53.12
2023-10-03T09:16:09.826Z,53.22
2023-10-03T09:18:23.481Z,53.57
2023-10-03T09:20:33.186Z,53.59
2023-10-03T09:22:38.201Z,53.64
2023-10-03T09:24:49.571Z,53.72
2023-10-03T09:27:09.710Z,53.93
2023-10-03T09:29:21.123Z,52.71
2023-10-03T09:31:25.376Z,52.76
2023-10-03T09:33:28.737Z,52.22
2023-10-03T09:35:32.542Z,53.22
2023-10-03T09:37:35.984Z,52.42
2023-10-03T09:39:52.853Z,52.49
2023-10-03T09:41:56.591Z,52.31
2023-10-03T09:44:00.709Z,50.64
2023-10-03T09:46:03.532Z,50.97
2023-10-03T09:48:07.759Z,50.45
2023-10-03T09:50:11.370Z,49.64
2023-10-03T09:52:29.254Z,51.24
2023-10-03T09:54:34.076Z,49.80
2023-10-03T09:56:42.168Z,50.68
2023-10-03T09:58:48.185Z,48.98
2023-10-03T10:00:54.934Z,50.34
2023-10-03T10:03:05.229Z,49.82
2023-10-03T10:05:24.292Z,50.35
2023-10-03T10:07:36.209Z,48.01
2023-10-03T10:09:50.052Z,48.88
2023-10-03T10:12:15.772Z,49.89
2023-10-03T10:14:21.530Z,50.34
2023-10-03T10:16:25.088Z,50.77
2023-10-03T10:18:46.148Z,49.85
2023-10-03T10:21:25.989Z,50.14
2023-10-03T10:23:36.030Z,47.38
2023-10-03T10:25:53.609Z,48.62
2023-10-03T10:28:08.354Z,47.85
2023-10-03T10:30:15.726Z,47.96
2023-10-03T10:32:21.269Z,47.07
2023-10-03T10:34:24.151Z,47.53
2023-10-03T10:36:57.748Z,47.34
2023-10-03T10:39:01.167Z,48.63
2023-10-03T10:41:13.593Z,47.35
2023-10-03T10:43:18.197Z,46.42
2023-10-03T10:45:22.618Z,47.51
2023-10-03T10:47:26.029Z,46.26
2023-10-03T10:49:38.309Z,47.42
2023-10-03T10:51:55.846Z,47.06
2023-10-03T10:53:59.224Z,47.29
2023-10-03T10:56:02.110Z,48.27
2023-10-03T10:58:10.035Z,48.19
2023-10-03T11:00:23.343Z,47.00
2023-10-03T11:02:30.219Z,48.31
2023-10-03T11:04:35.183Z,47.46
2023-10-03T11:06:38.583Z,47.75
2023-10-03T11:08:49.659Z,47.00
2023-10-03T11:10:56.748Z,47.03
2023-10-03T11:13:01.935Z,47.30
2023-10-03T11:15:07.161Z,47.21
2023-10-03T11:17:10.475Z,47.22
2023-10-03T11:19:13.117Z,47.70
2023-10-03T11:21:17.690Z,47.18
2023-10-03T11:23:20.925Z,47.15
2023-10-03T11:25:23.632Z,47.60
2023-10-03T11:27:30.983Z,46.31
2023-10-03T11:29:41.957Z,46.36
2023-10-03T11:31:46.291Z,45.89
2023-10-03T11:33:49.348Z,46.84
2023-10-03T11:35:55.884Z,46.58
2023-10-03T11:38:07.038Z,46.00
2023-10-03T11:40:22.182Z,47.08
2023-10-03T11:42:28.387Z,45.88
2023-10-03T11:44:32.920Z,47.07
2023-10-03T11:46:39.833Z,46.75
2023-10-03T11:48:43.345Z,46.00
2023-10-03T11:50:47.399Z,47.58
2023-10-03T11:52:50.456Z,46.08
2023-10-03T11:54:53.123Z,45.62
2023-10-03T11:56:58.702Z,46.97
2023-10-03T11:59:02.440Z,47.58
2023-10-03T12:01:06.305Z,46.93
2023-10-03T12:03:11.611Z,47.05
2023-10-03T12:05:16.170Z,46.06
2023-10-03T12:07:18.733Z,45.67
2023-10-03T12:09:22.348Z,46.95
2023-10-03T12:11:25.769Z,47.43
2023-10-03T12:13:28.503Z,45.73
2023-10-03T12:15:31.955Z,46.33
2023-10-03T12:17:35.245Z,46.60
2023-10-03T12:19:39.103Z,46.48
2023-10-03T12:21:41.865Z,46.91
2023-10-03T12:23:46.954Z,47.10
2023-10-03T12:25:50.103Z,46.88
2023-10-03T12:27:53.056Z,47.42
2023-10-03T12:29:55.830Z,47.66
2023-10-03T12:31:59.243Z,47.14
2023-10-03T12:34:03.506Z,46.95
2023-10-03T12:36:06.559Z,47.76
2023-10-03T12:38:13.333Z,46.79
2023-10-03T12:40:21.124Z,47.25
2023-10-03T12:42:24.426Z,47.17
2023-10-03T12:44:27.846Z,47.89
2023-10-03T12:46:30.501Z,47.82
2023-10-03T12:48:34.335Z,48.30
2023-10-03T12:50:38.421Z,47.19
2023-10-03T12:52:44.101Z,47.68
2023-10-03T12:54:47.878Z,48.28
2023-10-03T12:56:50.493Z,47.21
2023-10-03T12:58:53.203Z,47.69
2023-10-03T13:00:55.711Z,47.13
2023-10-03T13:03:01.737Z,47.88
2023-10-03T13:05:06.752Z,48.47
2023-10-03T13:07:11.023Z,47.66
2023-10-03T13:09:14.253Z,47.30
2023-10-03T13:11:16.895Z,47.22
2023-10-03T13:13:26.399Z,47.29
2023-10-03T13:15:34.960Z,47.90
2023-10-03T13:17:39.684Z,47.91
2023-10-03T13:19:42.630Z,48.30
2023-10-03T13:21:46.742Z,48.67
2023-10-03T13:23:49.645Z,48.85
2023-10-03T13:25:53.540Z,49.03
2023-10-03T13:27:56.317Z,48.98
2023-10-03T13:29:59.052Z,48.02
2023-10-03T13:32:04.125Z,48.44
2023-10-03T13:34:06.737Z,48.91
2023-10-03T13:36:09.718Z,48.55
2023-10-03T13:38:12.780Z,49.10
2023-10-03T13:40:15.687Z,48.89
2023-10-03T13:42:18.916Z,48.51
2023-10-03T13:44:22.518Z,49.64
2023-10-03T13:46:27.906Z,48.50
2023-10-03T13:48:30.973Z,49.03
2023-10-03T13:50:35.926Z,48.13
2023-10-03T13:52:42.543Z,48.46
2023-10-03T13:54:45.426Z,49.07
2023-10-03T13:56:48.700Z,48.19
2023-10-03T13:58:51.554Z,48.89
2023-10-03T14:00:54.722Z,48.65
2023-10-03T14:03:02.768Z,49.40
2023-10-03T14:05:11.885Z,48.76
2023-10-03T14:07:14.817Z,48.57
2023-10-03T14:09:19.132Z,48.32
2023-10-03T14:11:26.508Z,48.56
2023-10-03T14:13:29.621Z,48.24
2023-10-03T14:15:34.850Z,48.76
2023-10-03T14:17:37.496Z,49.30
2023-10-03T14:19:41.106Z,48.55
2023-10-03T14:21:46.953Z,47.95
2023-10-03T14:23:53.521Z,48.24
2023-10-03T14:25:59.667Z,48.90
2023-10-03T14:28:02.498Z,48.80
2023-10-03T14:30:06.712Z,48.59
2023-10-03T14:32:12.222Z,48.99
2023-10-03T14:34:16.193Z,48.86
2023-10-03T14:36:19.049Z,48.86
2023-10-03T14:38:22.256Z,49.24
2023-10-03T14:40:25.091Z,48.84
2023-10-03T14:42:28.228Z,48.98
2023-10-03T14:44:31.405Z,48.89
2023-10-03T14:46:35.011Z,50.19
2023-10-03T14:48:38.858Z,49.62
2023-10-03T14:50:42.842Z,50.02
2023-10-03T14:52:45.558Z,49.51
2023-10-03T14:54:48.582Z,50.13
2023-10-03T14:56:52.246Z,50.23
2023-10-03T14:58:55.792Z,50.59
2023-10-03T15:01:06.217Z,50.63
2023-10-03T15:03:10.582Z,50.98
2023-10-03T15:05:15.965Z,50.70
2023-10-03T15:07:19.001Z,51.36
2023-10-03T15:09:21.817Z,51.38
2023-10-03T15:11:24.665Z,51.64
2023-10-03T15:13:27.869Z,51.42
2023-10-03T15:15:31.631Z,51.57
2023-10-03T15:17:37.361Z,51.83
2023-10-03T15:19:40.229Z,51.71
2023-10-03T15:21:43.113Z,52.19
2023-10-03T15:23:47.218Z,52.09
2023-10-03T15:25:51.157Z,52.32
2023-10-03T15:27:56.460Z,52.87
2023-10-03T15:30:03.144Z,52.66
2023-10-03T15:32:07.212Z,52.88
2023-10-03T15:34:11.304Z,52.85
2023-10-03T15:36:14.152Z,53.40
2023-10-03T15:38:17.649Z,53.77
2023-10-03T15:40:22.497Z,53.89
2023-10-03T15:42:26.816Z,54.67
2023-10-03T15:44:29.616Z,54.83
2023-10-03T15:46:36.102Z,54.80
2023-10-03T15:48:41.584Z,55.28
2023-10-03T15:50:45.134Z,55.36
2023-10-03T15:52:48.107Z,55.51
2023-10-03T15:54:50.726Z,55.60
2023-10-03T15:56:54.362Z,55.34
2023-10-03T15:58:56.884Z,56.03
2023-10-03T16:00:59.951Z,56.33
2023-10-03T16:03:04.887Z,56.26
2023-10-03T16:05:12.224Z,56.39
2023-10-03T16:07:15.495Z,56.04
2023-10-03T16:09:21.089Z,56.45
2023-10-03T16:11:26.281Z,56.40
2023-10-03T16:13:29.285Z,56.26
2023-10-03T16:15:32.326Z,56.41
2023-10-03T16:17:36.732Z,56.88
2023-10-03T16:19:39.877Z,56.76
2023-10-03T16:21:43.836Z,57.00
2023-10-03T16:23:47.596Z,56.84
2023-10-03T16:25:50.564Z,57.30
2023-10-03T16:27:53.487Z,57.13
2023-10-03T16:29:56.656Z,56.97
2023-10-03T16:31:59.317Z,57.13
2023-10-03T16:34:01.998Z,57.49
2023-10-03T16:36:06.807Z,57.45
2023-10-03T16:38:09.699Z,57.67
2023-10-03T16:40:14.268Z,57.53
2023-10-03T16:42:19.487Z,58.04
2023-10-03T16:44:22.998Z,58.49
2023-10-03T16:46:26.076Z,58.07
2023-10-03T16:48:29.265Z,58.21
2023-10-03T16:50:32.305Z,58.56
2023-10-03T16:52:35.360Z,58.98
2023-10-03T16:54:38.119Z,58.97
2023-10-03T16:56:43.213Z,59.15
2023-10-03T16:58:46.231Z,59.32
2023-10-03T17:00:48.967Z,59.29
2023-10-03T17:02:51.834Z,59.34
2023-10-03T17:04:54.948Z,59.34
2023-10-03T17:07:00.136Z,59.64
2023-10-03T17:09:04.932Z,59.97
2023-10-03T17:11:08.148Z,59.90
2023-10-03T17:13:10.828Z,59.74
2023-10-03T17:15:13.934Z,60.32
2023-10-03T17:17:18.203Z,59.90
2023-10-03T17:19:20.847Z,60.07
2023-10-03T17:21:23.623Z,60.28
2023-10-03T17:23:26.479Z,59.84
2023-10-03T17:25:30.944Z,60.36
2023-10-03T17:27:33.633Z,60.29
2023-10-03T17:29:36.790Z,60.19
2023-10-03T17:31:43.533Z,59.93
2023-10-03T17:33:46.454Z,60.21
2023-10-03T17:35:50.124Z,60.49
2023-10-03T17:37:53.113Z,60.51
2023-10-03T17:39:56.538Z,60.46
2023-10-03T17:41:59.390Z,60.80
2023-10-03T17:44:02.497Z,60.53
2023-10-03T17:46:06.497Z,60.60
2023-10-03T17:48:11.165Z,61.04
2023-10-03T17:50:15.754Z,60.88
2023-10-03T17:52:19.873Z,60.71
2023-10-03T17:54:33.344Z,60.72
2023-10-03T17:56:37.323Z,60.80
2023-10-03T17:58:40.126Z,60.95
2023-10-03T18:00:43.494Z,61.00
2023-10-03T18:02:48.046Z,60.90
2023-10-03T18:04:52.393Z,61.35
2023-10-03T18:06:55.689Z,61.51
2023-10-03T18:08:58.793Z,61.59
2023-10-03T18:11:04.067Z,61.65
2023-10-03T18:13:07.435Z,61.85
2023-10-03T18:15:12.748Z,61.19
2023-10-03T18:17:15.800Z,61.05
2023-10-03T18:19:18.636Z,60.38
2023-10-03T18:21:21.602Z,59.90
2023-10-03T18:23:25.007Z,59.84
2023-10-03T18:25:27.821Z,59.21
2023-10-03T18:27:31.624Z,59.40
2023-10-03T18:29:34.301Z,59.42
2023-10-03T18:31:38.117Z,59.35
2023-10-03T18:33:40.847Z,58.88
2023-10-03T18:35:44.734Z,59.12
2023-10-03T18:37:48.320Z,58.80
2023-10-03T18:39:51.381Z,58.81
2023-10-03T18:41:55.259Z,58.80
2023-10-03T18:43:59.056Z,58.75
2023-10-03T18:46:10.452Z,58.68
2023-10-03T18:48:13.704Z,58.73
2023-10-03T18:50:16.821Z,58.60
2023-10-03T18:52:20.442Z,58.72
2023-10-03T18:54:23.400Z,58.71
2023-10-03T18:56:26.817Z,58.28
2023-10-03T18:58:30.136Z,58.36
2023-10-03T19:00:33.849Z,58.68
2023-10-03T19:02:36.781Z,58.17
2023-10-03T19:04:40.711Z,58.50
2023-10-03T19:06:43.601Z,58.20
2023-10-03T19:08:46.815Z,58.83
2023-10-03T19:10:52.841Z,58.67
2023-10-03T19:12:58.665Z,58.86
2023-10-03T19:15:02.698Z,58.74
2023-10-03T19:17:06.235Z,58.55
2023-10-03T19:19:10.115Z,58.92
2023-10-03T19:21:14.126Z,59.01
2023-10-03T19:23:17.168Z,59.16
2023-10-03T19:25:20.841Z,59.19
2023-10-03T19:27:24.111Z,58.92
2023-10-03T19:29:26.684Z,59.08
2023-10-03T19:31:29.296Z,59.44
2023-10-03T19:33:32.356Z,59.56
2023-10-03T19:35:35.802Z,59.35
2023-10-03T19:37:38.807Z,59.50
2023-10-03T19:39:42.129Z,59.64
2023-10-03T19:41:45.071Z,59.37
2023-10-03T19:43:49.276Z,59.57
2023-10-03T19:45:52.141Z,59.48
2023-10-03T19:47:55.582Z,59.43
2023-10-03T19:49:59.787Z,59.44
2023-10-03T19:52:02.650Z,59.00
2023-10-03T19:54:05.513Z,59.24
2023-10-03T19:56:10.082Z,59.31
2023-10-03T19:58:12.904Z,59.22
2023-10-03T20:00:16.430Z,59.30
2023-10-03T20:02:25.629Z,59.12
2023-10-03T20:04:28.506Z,59.02
2023-10-03T20:06:31.224Z,59.01
2023-10-03T20:08:34.443Z,59.12
2023-10-03T20:10:37.319Z,58.93
2023-10-03T20:12:40.086Z,59.02
2023-10-03T20:14:43.085Z,59.21
2023-10-03T20:16:46.416Z,59.09
2023-10-03T20:18:50.293Z,59.12
2023-10-03T20:20:53.696Z,59.55
2023-10-03T20:22:57.289Z,59.67
2023-10-03T20:25:02.359Z,60.01
2023-10-03T20:27:06.197Z,59.45
2023-10-03T20:29:08.917Z,59.71
2023-10-03T20:31:12.039Z,60.07
2023-10-03T20:33:15.544Z,60.55
2023-10-03T20:35:18.854Z,60.81
2023-10-03T20:37:23.452Z,60.78
2023-10-03T20:39:28.218Z,60.71
2023-10-03T20:41:31.176Z,61.08
2023-10-03T20:43:36.136Z,61.08
2023-10-03T20:45:42.077Z,61.06
2023-10-03T20:47:44.800Z,61.48
2023-10-03T20:49:54.029Z,61.99
2023-10-03T20:51:59.013Z,61.39
2023-10-03T20:54:08.111Z,61.40
2023-10-03T20:56:11.870Z,61.64
2023-10-03T20:58:17.171Z,62.10
2023-10-03T21:00:19.977Z,62.37
2023-10-03T21:02:29.224Z,62.80
2023-10-03T21:04:32.046Z,63.02
2023-10-03T21:06:36.282Z,63.51
2023-10-03T21:08:39.204Z,64.26
2023-10-03T21:10:44.924Z,64.64
2023-10-03T21:12:51.842Z,64.65
2023-10-03T21:14:55.225Z,64.55
2023-10-03T21:16:57.990Z,64.63
2023-10-03T21:19:00.890Z,65.15
2023-10-03T21:21:04.521Z,67.82
2023-10-03T21:23:07.289Z,67.33
2023-10-03T21:25:12.584Z,65.63
2023-10-03T21:27:15.675Z,65.31
2023-10-03T21:29:18.791Z,66.16
2023-10-03T21:31:21.505Z,67.17
2023-10-03T21:33:24.090Z,68.35
2023-10-03T21:35:26.655Z,68.74
2023-10-03T21:37:29.419Z,69.30
2023-10-03T21:39:32.482Z,70.01
2023-10-03T21:41:36.418Z,70.95
2023-10-03T21:43:39.542Z,71.54
2023-10-03T21:45:42.489Z,72.32
2023-10-03T21:47:45.517Z,72.84
2023-10-03T21:49:49.798Z,73.38
2023-10-03T21:51:53.842Z,73.87
2023-10-03T21:53:56.508Z,73.87
2023-10-03T21:56:00.129Z,74.48
2023-10-03T21:58:03.416Z,74.81
2023-10-03T22:00:21.951Z,74.89
2023-10-03T22:02:25.420Z,75.39
2023-10-03T22:04:28.520Z,75.59
2023-10-03T22:06:31.991Z,76.11
2023-10-03T22:08:35.066Z,76.08
2023-10-03T22:10:38.980Z,76.11
2023-10-03T22:12:41.547Z,76.47
2023-10-03T22:14:44.533Z,76.02
2023-10-03T22:16:47.276Z,75.98
2023-10-03T22:18:50.100Z,76.10
2023-10-03T22:20:54.154Z,76.47
2023-10-03T22:22:57.384Z,76.28
2023-10-03T22:24:59.881Z,76.21
2023-10-03T22:27:04.468Z,76.54
2023-10-03T22:29:10.024Z,76.33
2023-10-03T22:31:16.365Z,77.03
2023-10-03T22:33:19.806Z,77.45
2023-10-03T22:35:23.246Z,77.35
2023-10-03T22:37:27.518Z,77.37
2023-10-03T22:39:30.154Z,78.14
2023-10-03T22:41:32.713Z,77.74
2023-10-03T22:43:35.890Z,77.64
2023-10-03T22:45:39.132Z,77.61
2023-10-03T22:47:41.983Z,77.44
2023-10-03T22:49:44.835Z,77.62
2023-10-03T22:51:48.021Z,76.97
2023-10-03T22:53:52.872Z,77.47
2023-10-03T22:55:55.823Z,76.86
2023-10-03T22:57:58.593Z,77.42
2023-10-03T23:00:03.480Z,76.97
2023-10-03T23:02:07.265Z,76.86
2023-10-03T23:04:10.024Z,77.03
2023-10-03T23:06:13.214Z,76.49
2023-10-03T23:08:16.085Z,76.92
2023-10-03T23:10:19.633Z,76.86
2023-10-03T23:12:22.685Z,76.66
2023-10-03T23:14:26.026Z,77.08
2023-10-03T23:16:30.342Z,77.29
2023-10-03T23:18:34.449Z,77.76
2023-10-03T23:20:37.160Z,77.63
2023-10-03T23:22:40.409Z,78.02
2023-10-03T23:24:43.440Z,77.63
2023-10-03T23:26:46.157Z,77.40
2023-10-03T23:28:49.186Z,77.34
2023-10-03T23:30:53.784Z,77.86
2023-10-03T23:32:56.239Z,77.80
2023-10-03T23:34:59.806Z,77.75
2023-10-03T23:37:03.038Z,78.25
2023-10-03T23:39:10.056Z,78.20
2023-10-03T23:41:14.327Z,77.97
2023-10-03T23:43:19.524Z,78.53
2023-10-03T23:45:22.453Z,78.95
2023-10-03T23:47:25.958Z,78.65
2023-10-03T23:49:28.642Z,78.43
2023-10-03T23:51:31.524Z,79.25
2023-10-03T23:53:34.875Z,78.64
2023-10-03T23:55:37.487Z,78.86
2023-10-03T23:57:41.887Z,78.98
2023-10-03T23:59:45.695Z,80.22
